sensor_id;sensor_type;location;lat;lon;timestamp;P1;durP1;ratioP1;P2;durP2;ratioP2
21046;SDS011;10682;50.874;3.656;2023-03-15T00:01:15;7.13;;;2.23;;
21046;SDS011;10682;50.874;3.656;2023-03-15T00:03:44;9.07;;;2.60;;
21046;SDS011;10682;50.874;3.656;2023-03-15T00:06:12;10.73;;;2.67;;
21046;SDS011;10682;50.874;3.656;2023-03-15T00:08:40;8.80;;;2.37;;
21046;SDS011;10682;50.874;3.656;2023-03-15T00:11:14;7.00;;;2.47;;
21046;SDS011;10682;50.874;3.656;2023-03-15T00:13:42;6.40;;;2.17;;
21046;SDS011;10682;50.874;3.656;2023-03-15T00:16:10;7.03;;;1.90;;
21046;SDS011;10682;50.874;3.656;2023-03-15T00:18:43;7.97;;;2.23;;
21046;SDS011;10682;50.874;3.656;2023-03-15T00:21:13;5.20;;;2.17;;
21046;SDS011;10682;50.874;3.656;2023-03-15T00:23:41;7.17;;;2.60;;
21046;SDS011;10682;50.874;3.656;2023-03-15T00:26:08;7.60;;;2.90;;
21046;SDS011;10682;50.874;3.656;2023-03-15T00:28:35;5.83;;;2.83;;
21046;SDS011;10682;50.874;3.656;2023-03-15T00:31:06;6.43;;;2.97;;
21046;SDS011;10682;50.874;3.656;2023-03-15T00:33:49;7.40;;;2.70;;
21046;SDS011;10682;50.874;3.656;2023-03-15T00:36:20;7.77;;;3.27;;
21046;SDS011;10682;50.874;3.656;2023-03-15T00:38:50;8.40;;;3.73;;
21046;SDS011;10682;50.874;3.656;2023-03-15T00:41:28;11.87;;;3.40;;
21046;SDS011;10682;50.874;3.656;2023-03-15T00:44:09;12.50;;;2.93;;
21046;SDS011;10682;50.874;3.656;2023-03-15T00:46:36;10.60;;;4.03;;
21046;SDS011;10682;50.874;3.656;2023-03-15T00:49:03;7.77;;;3.10;;
21046;SDS011;10682;50.874;3.656;2023-03-15T00:51:30;12.20;;;3.40;;
21046;SDS011;10682;50.874;3.656;2023-03-15T00:53:58;11.83;;;3.60;;
21046;SDS011;10682;50.874;3.656;2023-03-15T00:56:26;12.97;;;3.40;;
21046;SDS011;10682;50.874;3.656;2023-03-15T00:58:55;9.47;;;3.40;;
21046;SDS011;10682;50.874;3.656;2023-03-15T01:01:27;12.23;;;3.80;;
21046;SDS011;10682;50.874;3.656;2023-03-15T01:03:55;13.83;;;3.97;;
21046;SDS011;10682;50.874;3.656;2023-03-15T01:06:23;11.73;;;3.83;;
21046;SDS011;10682;50.874;3.656;2023-03-15T01:08:53;8.20;;;3.73;;
21046;SDS011;10682;50.874;3.656;2023-03-15T01:11:23;11.00;;;3.73;;
21046;SDS011;10682;50.874;3.656;2023-03-15T01:13:53;10.93;;;3.93;;
21046;SDS011;10682;50.874;3.656;2023-03-15T01:16:23;9.70;;;3.60;;
21046;SDS011;10682;50.874;3.656;2023-03-15T01:18:51;10.87;;;3.87;;
21046;SDS011;10682;50.874;3.656;2023-03-15T01:21:19;10.63;;;3.70;;
21046;SDS011;10682;50.874;3.656;2023-03-15T01:23:48;11.40;;;3.87;;
21046;SDS011;10682;50.874;3.656;2023-03-15T01:26:16;8.40;;;3.30;;
21046;SDS011;10682;50.874;3.656;2023-03-15T01:28:44;9.20;;;3.57;;
21046;SDS011;10682;50.874;3.656;2023-03-15T01:31:16;10.53;;;3.77;;
21046;SDS011;10682;50.874;3.656;2023-03-15T01:33:56;8.70;;;3.67;;
21046;SDS011;10682;50.874;3.656;2023-03-15T01:36:24;6.43;;;3.47;;
21046;SDS011;10682;50.874;3.656;2023-03-15T01:38:51;12.07;;;4.10;;
21046;SDS011;10682;50.874;3.656;2023-03-15T01:41:20;8.60;;;4.03;;
21046;SDS011;10682;50.874;3.656;2023-03-15T01:43:48;9.03;;;4.20;;
21046;SDS011;10682;50.874;3.656;2023-03-15T01:51:40;8.60;;;4.30;;
21046;SDS011;10682;50.874;3.656;2023-03-15T01:54:20;9.83;;;4.20;;
21046;SDS011;10682;50.874;3.656;2023-03-15T01:57:12;10.90;;;4.07;;
21046;SDS011;10682;50.874;3.656;2023-03-15T02:00:03;11.07;;;3.80;;
21046;SDS011;10682;50.874;3.656;2023-03-15T02:02:40;7.93;;;3.80;;
21046;SDS011;10682;50.874;3.656;2023-03-15T02:05:29;11.97;;;4.27;;
21046;SDS011;10682;50.874;3.656;2023-03-15T02:08:03;13.60;;;4.57;;
21046;SDS011;10682;50.874;3.656;2023-03-15T02:10:34;12.60;;;4.20;;
21046;SDS011;10682;50.874;3.656;2023-03-15T02:13:06;9.40;;;4.03;;
21046;SDS011;10682;50.874;3.656;2023-03-15T02:15:34;14.50;;;4.43;;
21046;SDS011;10682;50.874;3.656;2023-03-15T02:18:01;12.20;;;4.50;;
21046;SDS011;10682;50.874;3.656;2023-03-15T02:23:08;10.90;;;4.40;;
21046;SDS011;10682;50.874;3.656;2023-03-15T02:28:30;12.37;;;4.30;;
21046;SDS011;10682;50.874;3.656;2023-03-15T02:30:58;10.40;;;4.33;;
21046;SDS011;10682;50.874;3.656;2023-03-15T02:33:27;15.73;;;5.47;;
21046;SDS011;10682;50.874;3.656;2023-03-15T02:38:44;12.67;;;5.37;;
21046;SDS011;10682;50.874;3.656;2023-03-15T02:41:13;13.50;;;5.07;;
21046;SDS011;10682;50.874;3.656;2023-03-15T02:43:44;8.63;;;3.93;;
21046;SDS011;10682;50.874;3.656;2023-03-15T02:46:15;10.73;;;4.43;;
21046;SDS011;10682;50.874;3.656;2023-03-15T02:48:43;8.50;;;4.77;;
21046;SDS011;10682;50.874;3.656;2023-03-15T02:51:19;8.70;;;4.40;;
21046;SDS011;10682;50.874;3.656;2023-03-15T02:53:48;13.70;;;4.60;;
21046;SDS011;10682;50.874;3.656;2023-03-15T02:56:16;11.13;;;4.90;;
21046;SDS011;10682;50.874;3.656;2023-03-15T02:58:43;9.30;;;4.50;;
21046;SDS011;10682;50.874;3.656;2023-03-15T03:01:11;12.10;;;4.80;;
21046;SDS011;10682;50.874;3.656;2023-03-15T03:03:40;10.33;;;4.93;;
21046;SDS011;10682;50.874;3.656;2023-03-15T03:06:08;14.67;;;5.00;;
21046;SDS011;10682;50.874;3.656;2023-03-15T03:08:37;13.70;;;5.03;;
21046;SDS011;10682;50.874;3.656;2023-03-15T03:11:05;10.53;;;4.53;;
21046;SDS011;10682;50.874;3.656;2023-03-15T03:13:32;8.47;;;5.30;;
21046;SDS011;10682;50.874;3.656;2023-03-15T03:15:59;15.17;;;5.20;;
21046;SDS011;10682;50.874;3.656;2023-03-15T03:18:27;15.53;;;4.77;;
21046;SDS011;10682;50.874;3.656;2023-03-15T03:20:56;9.50;;;4.97;;
21046;SDS011;10682;50.874;3.656;2023-03-15T03:23:25;15.67;;;5.27;;
21046;SDS011;10682;50.874;3.656;2023-03-15T03:25:52;11.30;;;4.73;;
21046;SDS011;10682;50.874;3.656;2023-03-15T03:28:25;11.00;;;4.83;;
21046;SDS011;10682;50.874;3.656;2023-03-15T03:30:55;14.90;;;5.30;;
21046;SDS011;10682;50.874;3.656;2023-03-15T03:33:23;13.47;;;4.33;;
21046;SDS011;10682;50.874;3.656;2023-03-15T03:35:51;11.77;;;4.60;;
21046;SDS011;10682;50.874;3.656;2023-03-15T03:38:19;14.20;;;5.27;;
21046;SDS011;10682;50.874;3.656;2023-03-15T03:40:46;11.07;;;4.87;;
21046;SDS011;10682;50.874;3.656;2023-03-15T03:43:13;13.40;;;5.10;;
21046;SDS011;10682;50.874;3.656;2023-03-15T03:45:40;8.30;;;4.90;;
21046;SDS011;10682;50.874;3.656;2023-03-15T03:48:07;13.43;;;5.17;;
21046;SDS011;10682;50.874;3.656;2023-03-15T03:50:34;13.03;;;5.10;;
21046;SDS011;10682;50.874;3.656;2023-03-15T03:53:01;13.90;;;4.63;;
21046;SDS011;10682;50.874;3.656;2023-03-15T03:55:28;11.37;;;4.97;;
21046;SDS011;10682;50.874;3.656;2023-03-15T03:57:55;11.93;;;5.20;;
21046;SDS011;10682;50.874;3.656;2023-03-15T04:00:22;13.43;;;5.10;;
21046;SDS011;10682;50.874;3.656;2023-03-15T04:02:49;16.33;;;5.43;;
21046;SDS011;10682;50.874;3.656;2023-03-15T04:05:19;11.00;;;4.40;;
21046;SDS011;10682;50.874;3.656;2023-03-15T04:07:46;11.90;;;4.67;;
21046;SDS011;10682;50.874;3.656;2023-03-15T04:10:14;12.27;;;4.60;;
21046;SDS011;10682;50.874;3.656;2023-03-15T04:12:41;12.47;;;4.43;;
21046;SDS011;10682;50.874;3.656;2023-03-15T04:17:56;9.87;;;4.30;;
21046;SDS011;10682;50.874;3.656;2023-03-15T04:20:24;12.80;;;4.13;;
21046;SDS011;10682;50.874;3.656;2023-03-15T04:22:52;8.97;;;3.60;;
21046;SDS011;10682;50.874;3.656;2023-03-15T04:25:20;9.23;;;3.73;;
21046;SDS011;10682;50.874;3.656;2023-03-15T04:27:47;10.73;;;3.27;;
21046;SDS011;10682;50.874;3.656;2023-03-15T04:30:27;9.13;;;3.73;;
21046;SDS011;10682;50.874;3.656;2023-03-15T04:32:56;11.10;;;3.90;;
21046;SDS011;10682;50.874;3.656;2023-03-15T04:35:29;7.53;;;3.47;;
21046;SDS011;10682;50.874;3.656;2023-03-15T04:38:01;8.03;;;3.23;;
21046;SDS011;10682;50.874;3.656;2023-03-15T04:40:33;8.70;;;3.87;;
21046;SDS011;10682;50.874;3.656;2023-03-15T04:43:04;12.27;;;3.93;;
21046;SDS011;10682;50.874;3.656;2023-03-15T04:45:33;12.50;;;3.13;;
21046;SDS011;10682;50.874;3.656;2023-03-15T04:48:05;7.97;;;3.20;;
21046;SDS011;10682;50.874;3.656;2023-03-15T04:50:32;11.47;;;3.00;;
21046;SDS011;10682;50.874;3.656;2023-03-15T04:52:59;6.90;;;2.70;;
21046;SDS011;10682;50.874;3.656;2023-03-15T04:55:27;12.40;;;3.30;;
21046;SDS011;10682;50.874;3.656;2023-03-15T04:57:54;10.60;;;3.10;;
21046;SDS011;10682;50.874;3.656;2023-03-15T05:00:21;11.73;;;3.47;;
21046;SDS011;10682;50.874;3.656;2023-03-15T05:02:49;12.30;;;3.30;;
21046;SDS011;10682;50.874;3.656;2023-03-15T05:05:21;10.27;;;3.20;;
21046;SDS011;10682;50.874;3.656;2023-03-15T05:07:51;6.70;;;2.77;;
21046;SDS011;10682;50.874;3.656;2023-03-15T05:10:19;7.30;;;3.20;;
21046;SDS011;10682;50.874;3.656;2023-03-15T05:12:56;10.10;;;3.47;;
21046;SDS011;10682;50.874;3.656;2023-03-15T05:15:23;6.57;;;3.20;;
21046;SDS011;10682;50.874;3.656;2023-03-15T05:17:51;9.93;;;3.40;;
21046;SDS011;10682;50.874;3.656;2023-03-15T05:20:20;8.07;;;3.27;;
21046;SDS011;10682;50.874;3.656;2023-03-15T05:22:48;11.03;;;3.30;;
21046;SDS011;10682;50.874;3.656;2023-03-15T05:25:15;8.77;;;3.20;;
21046;SDS011;10682;50.874;3.656;2023-03-15T05:27:42;6.80;;;3.27;;
21046;SDS011;10682;50.874;3.656;2023-03-15T05:30:11;10.50;;;3.20;;
21046;SDS011;10682;50.874;3.656;2023-03-15T05:32:40;7.83;;;3.40;;
21046;SDS011;10682;50.874;3.656;2023-03-15T05:35:10;6.23;;;3.27;;
21046;SDS011;10682;50.874;3.656;2023-03-15T05:37:38;14.53;;;3.37;;
21046;SDS011;10682;50.874;3.656;2023-03-15T05:40:05;8.43;;;3.37;;
21046;SDS011;10682;50.874;3.656;2023-03-15T05:42:35;9.83;;;3.63;;
21046;SDS011;10682;50.874;3.656;2023-03-15T05:45:02;10.10;;;3.40;;
21046;SDS011;10682;50.874;3.656;2023-03-15T05:47:29;6.77;;;3.80;;
21046;SDS011;10682;50.874;3.656;2023-03-15T05:49:59;9.23;;;3.70;;
21046;SDS011;10682;50.874;3.656;2023-03-15T05:52:27;8.47;;;3.43;;
21046;SDS011;10682;50.874;3.656;2023-03-15T05:54:54;7.63;;;3.47;;
21046;SDS011;10682;50.874;3.656;2023-03-15T05:57:21;6.63;;;3.73;;
21046;SDS011;10682;50.874;3.656;2023-03-15T05:59:48;7.23;;;3.13;;
21046;SDS011;10682;50.874;3.656;2023-03-15T06:02:15;6.47;;;3.30;;
21046;SDS011;10682;50.874;3.656;2023-03-15T06:04:42;8.13;;;3.30;;
21046;SDS011;10682;50.874;3.656;2023-03-15T06:07:09;7.00;;;3.30;;
21046;SDS011;10682;50.874;3.656;2023-03-15T06:09:36;7.63;;;3.27;;
21046;SDS011;10682;50.874;3.656;2023-03-15T06:14:50;7.63;;;2.97;;
21046;SDS011;10682;50.874;3.656;2023-03-15T06:17:17;8.13;;;2.63;;
21046;SDS011;10682;50.874;3.656;2023-03-15T06:19:44;9.67;;;3.27;;
21046;SDS011;10682;50.874;3.656;2023-03-15T06:22:12;5.10;;;2.57;;
21046;SDS011;10682;50.874;3.656;2023-03-15T06:24:39;6.83;;;3.00;;
21046;SDS011;10682;50.874;3.656;2023-03-15T06:27:06;7.87;;;3.93;;
21046;SDS011;10682;50.874;3.656;2023-03-15T06:29:33;9.17;;;4.07;;
21046;SDS011;10682;50.874;3.656;2023-03-15T06:32:00;7.53;;;3.83;;
21046;SDS011;10682;50.874;3.656;2023-03-15T06:34:28;8.37;;;3.83;;
21046;SDS011;10682;50.874;3.656;2023-03-15T06:36:55;7.40;;;3.03;;
21046;SDS011;10682;50.874;3.656;2023-03-15T06:39:22;6.40;;;3.10;;
21046;SDS011;10682;50.874;3.656;2023-03-15T06:41:50;5.33;;;2.70;;
21046;SDS011;10682;50.874;3.656;2023-03-15T06:44:23;6.30;;;2.73;;
21046;SDS011;10682;50.874;3.656;2023-03-15T06:46:50;5.57;;;2.83;;
21046;SDS011;10682;50.874;3.656;2023-03-15T06:49:17;5.90;;;2.30;;
21046;SDS011;10682;50.874;3.656;2023-03-15T06:51:44;9.33;;;2.60;;
21046;SDS011;10682;50.874;3.656;2023-03-15T06:54:11;4.67;;;2.63;;
21046;SDS011;10682;50.874;3.656;2023-03-15T06:56:39;6.47;;;2.97;;
21046;SDS011;10682;50.874;3.656;2023-03-15T06:59:07;7.00;;;3.00;;
21046;SDS011;10682;50.874;3.656;2023-03-15T07:01:34;5.27;;;2.83;;
21046;SDS011;10682;50.874;3.656;2023-03-15T07:04:01;4.97;;;2.73;;
21046;SDS011;10682;50.874;3.656;2023-03-15T07:06:28;5.13;;;3.07;;
21046;SDS011;10682;50.874;3.656;2023-03-15T07:08:55;6.23;;;3.10;;
21046;SDS011;10682;50.874;3.656;2023-03-15T07:11:22;6.17;;;3.10;;
21046;SDS011;10682;50.874;3.656;2023-03-15T07:13:49;5.90;;;3.30;;
21046;SDS011;10682;50.874;3.656;2023-03-15T07:16:16;6.87;;;3.30;;
21046;SDS011;10682;50.874;3.656;2023-03-15T07:18:43;7.73;;;3.33;;
21046;SDS011;10682;50.874;3.656;2023-03-15T07:21:10;8.13;;;3.37;;
21046;SDS011;10682;50.874;3.656;2023-03-15T07:23:37;6.00;;;3.07;;
21046;SDS011;10682;50.874;3.656;2023-03-15T07:26:04;6.20;;;3.33;;
21046;SDS011;10682;50.874;3.656;2023-03-15T07:28:31;4.17;;;2.87;;
21046;SDS011;10682;50.874;3.656;2023-03-15T07:30:59;5.27;;;2.90;;
21046;SDS011;10682;50.874;3.656;2023-03-15T07:33:30;6.37;;;3.37;;
21046;SDS011;10682;50.874;3.656;2023-03-15T07:35:58;8.53;;;3.27;;
21046;SDS011;10682;50.874;3.656;2023-03-15T07:38:29;10.33;;;4.10;;
21046;SDS011;10682;50.874;3.656;2023-03-15T07:41:00;7.93;;;3.87;;
21046;SDS011;10682;50.874;3.656;2023-03-15T07:43:28;8.47;;;4.03;;
21046;SDS011;10682;50.874;3.656;2023-03-15T07:45:55;8.10;;;3.83;;
21046;SDS011;10682;50.874;3.656;2023-03-15T07:48:22;6.90;;;3.10;;
21046;SDS011;10682;50.874;3.656;2023-03-15T07:50:49;6.67;;;2.67;;
21046;SDS011;10682;50.874;3.656;2023-03-15T07:53:17;8.83;;;2.87;;
21046;SDS011;10682;50.874;3.656;2023-03-15T07:55:45;5.00;;;2.73;;
21046;SDS011;10682;50.874;3.656;2023-03-15T07:58:13;6.83;;;2.57;;
21046;SDS011;10682;50.874;3.656;2023-03-15T08:00:41;6.40;;;2.23;;
21046;SDS011;10682;50.874;3.656;2023-03-15T08:06:13;6.43;;;2.87;;
21046;SDS011;10682;50.874;3.656;2023-03-15T08:08:40;10.27;;;3.00;;
21046;SDS011;10682;50.874;3.656;2023-03-15T08:11:07;4.97;;;2.80;;
21046;SDS011;10682;50.874;3.656;2023-03-15T08:13:34;5.47;;;2.73;;
21046;SDS011;10682;50.874;3.656;2023-03-15T08:16:01;5.87;;;3.23;;
21046;SDS011;10682;50.874;3.656;2023-03-15T08:18:29;11.87;;;3.67;;
21046;SDS011;10682;50.874;3.656;2023-03-15T08:20:56;5.67;;;3.23;;
21046;SDS011;10682;50.874;3.656;2023-03-15T08:23:24;5.67;;;3.00;;
21046;SDS011;10682;50.874;3.656;2023-03-15T08:25:51;7.53;;;4.27;;
21046;SDS011;10682;50.874;3.656;2023-03-15T08:28:18;8.67;;;3.30;;
21046;SDS011;10682;50.874;3.656;2023-03-15T08:30:45;6.47;;;3.20;;
21046;SDS011;10682;50.874;3.656;2023-03-15T08:33:12;7.03;;;3.47;;
21046;SDS011;10682;50.874;3.656;2023-03-15T08:35:39;6.10;;;2.83;;
21046;SDS011;10682;50.874;3.656;2023-03-15T08:38:07;9.40;;;3.10;;
21046;SDS011;10682;50.874;3.656;2023-03-15T08:40:35;8.40;;;3.27;;
21046;SDS011;10682;50.874;3.656;2023-03-15T08:43:04;8.63;;;3.30;;
21046;SDS011;10682;50.874;3.656;2023-03-15T08:45:31;5.90;;;3.00;;
21046;SDS011;10682;50.874;3.656;2023-03-15T08:48:18;7.57;;;2.90;;
21046;SDS011;10682;50.874;3.656;2023-03-15T08:50:45;6.47;;;3.13;;
21046;SDS011;10682;50.874;3.656;2023-03-15T08:53:12;7.57;;;3.00;;
21046;SDS011;10682;50.874;3.656;2023-03-15T08:55:39;10.10;;;3.70;;
21046;SDS011;10682;50.874;3.656;2023-03-15T08:58:06;9.00;;;4.30;;
21046;SDS011;10682;50.874;3.656;2023-03-15T09:00:34;13.43;;;5.07;;
21046;SDS011;10682;50.874;3.656;2023-03-15T09:03:01;21.17;;;4.73;;
21046;SDS011;10682;50.874;3.656;2023-03-15T09:05:28;13.53;;;4.17;;
21046;SDS011;10682;50.874;3.656;2023-03-15T09:07:55;8.47;;;4.43;;
21046;SDS011;10682;50.874;3.656;2023-03-15T09:10:22;11.27;;;4.17;;
21046;SDS011;10682;50.874;3.656;2023-03-15T09:12:50;7.57;;;3.93;;
21046;SDS011;10682;50.874;3.656;2023-03-15T09:15:19;9.80;;;3.80;;
21046;SDS011;10682;50.874;3.656;2023-03-15T09:17:47;6.73;;;3.53;;
21046;SDS011;10682;50.874;3.656;2023-03-15T09:20:17;7.00;;;3.40;;
21046;SDS011;10682;50.874;3.656;2023-03-15T09:22:54;9.13;;;3.90;;
21046;SDS011;10682;50.874;3.656;2023-03-15T09:25:24;6.57;;;2.90;;
21046;SDS011;10682;50.874;3.656;2023-03-15T09:27:51;8.27;;;3.13;;
21046;SDS011;10682;50.874;3.656;2023-03-15T09:30:19;11.13;;;3.10;;
21046;SDS011;10682;50.874;3.656;2023-03-15T09:32:46;7.37;;;2.87;;
21046;SDS011;10682;50.874;3.656;2023-03-15T09:35:15;6.00;;;3.13;;
21046;SDS011;10682;50.874;3.656;2023-03-15T09:37:55;9.07;;;2.77;;
21046;SDS011;10682;50.874;3.656;2023-03-15T09:40:26;7.47;;;2.97;;
21046;SDS011;10682;50.874;3.656;2023-03-15T09:54:19;6.30;;;3.13;;
21046;SDS011;10682;50.874;3.656;2023-03-15T09:56:59;10.00;;;3.40;;
21046;SDS011;10682;50.874;3.656;2023-03-15T09:59:42;6.57;;;3.07;;
21046;SDS011;10682;50.874;3.656;2023-03-15T10:02:15;8.60;;;2.83;;
21046;SDS011;10682;50.874;3.656;2023-03-15T10:05:11;7.27;;;2.50;;
21046;SDS011;10682;50.874;3.656;2023-03-15T10:07:49;5.80;;;2.27;;
21046;SDS011;10682;50.874;3.656;2023-03-15T10:10:35;7.90;;;2.63;;
21046;SDS011;10682;50.874;3.656;2023-03-15T10:16:08;5.53;;;2.23;;
21046;SDS011;10682;50.874;3.656;2023-03-15T10:18:46;4.37;;;2.00;;
21046;SDS011;10682;50.874;3.656;2023-03-15T10:21:39;6.23;;;2.00;;
21046;SDS011;10682;50.874;3.656;2023-03-15T10:24:19;4.60;;;2.20;;
21046;SDS011;10682;50.874;3.656;2023-03-15T10:29:48;7.83;;;2.23;;
21046;SDS011;10682;50.874;3.656;2023-03-15T10:32:22;6.53;;;2.50;;
21046;SDS011;10682;50.874;3.656;2023-03-15T10:34:56;5.43;;;2.20;;
21046;SDS011;10682;50.874;3.656;2023-03-15T10:37:24;6.10;;;2.23;;
21046;SDS011;10682;50.874;3.656;2023-03-15T10:39:55;10.73;;;2.87;;
21046;SDS011;10682;50.874;3.656;2023-03-15T10:44:54;8.97;;;3.10;;
21046;SDS011;10682;50.874;3.656;2023-03-15T10:47:23;5.87;;;2.50;;
21046;SDS011;10682;50.874;3.656;2023-03-15T10:49:57;8.20;;;3.00;;
21046;SDS011;10682;50.874;3.656;2023-03-15T10:52:36;5.70;;;2.50;;
21046;SDS011;10682;50.874;3.656;2023-03-15T10:55:13;8.33;;;2.43;;
21046;SDS011;10682;50.874;3.656;2023-03-15T10:57:51;7.53;;;2.27;;
21046;SDS011;10682;50.874;3.656;2023-03-15T11:00:32;5.53;;;2.20;;
21046;SDS011;10682;50.874;3.656;2023-03-15T11:03:06;3.10;;;1.70;;
21046;SDS011;10682;50.874;3.656;2023-03-15T11:05:47;8.07;;;2.10;;
21046;SDS011;10682;50.874;3.656;2023-03-15T11:08:18;6.80;;;2.13;;
21046;SDS011;10682;50.874;3.656;2023-03-15T11:10:57;6.63;;;2.10;;
21046;SDS011;10682;50.874;3.656;2023-03-15T11:13:25;4.27;;;2.00;;
21046;SDS011;10682;50.874;3.656;2023-03-15T11:21:21;4.70;;;2.00;;
21046;SDS011;10682;50.874;3.656;2023-03-15T11:23:52;6.63;;;2.10;;
21046;SDS011;10682;50.874;3.656;2023-03-15T11:26:21;5.53;;;1.47;;
21046;SDS011;10682;50.874;3.656;2023-03-15T11:29:20;6.33;;;1.63;;
21046;SDS011;10682;50.874;3.656;2023-03-15T11:32:16;6.17;;;1.57;;
21046;SDS011;10682;50.874;3.656;2023-03-15T11:46:13;3.17;;;1.40;;
21046;SDS011;10682;50.874;3.656;2023-03-15T11:51:07;2.70;;;1.63;;
21046;SDS011;10682;50.874;3.656;2023-03-15T11:53:42;4.90;;;1.40;;
21046;SDS011;10682;50.874;3.656;2023-03-15T12:04:45;6.90;;;1.90;;
21046;SDS011;10682;50.874;3.656;2023-03-15T12:09:48;4.73;;;1.43;;
21046;SDS011;10682;50.874;3.656;2023-03-15T12:15:03;3.43;;;1.60;;
21046;SDS011;10682;50.874;3.656;2023-03-15T12:17:43;5.87;;;2.13;;
21046;SDS011;10682;50.874;3.656;2023-03-15T12:25:43;3.03;;;1.70;;
21046;SDS011;10682;50.874;3.656;2023-03-15T12:29:04;3.70;;;1.87;;
21046;SDS011;10682;50.874;3.656;2023-03-15T12:31:40;3.80;;;1.57;;
21046;SDS011;10682;50.874;3.656;2023-03-15T12:37:26;5.53;;;1.67;;
21046;SDS011;10682;50.874;3.656;2023-03-15T12:53:15;5.00;;;1.70;;
21046;SDS011;10682;50.874;3.656;2023-03-15T12:55:48;4.67;;;1.70;;
21046;SDS011;10682;50.874;3.656;2023-03-15T12:58:34;4.50;;;1.50;;
21046;SDS011;10682;50.874;3.656;2023-03-15T13:01:03;3.73;;;1.50;;
21046;SDS011;10682;50.874;3.656;2023-03-15T13:03:33;3.03;;;1.30;;
21046;SDS011;10682;50.874;3.656;2023-03-15T13:11:54;5.90;;;1.40;;
21046;SDS011;10682;50.874;3.656;2023-03-15T13:19:43;2.80;;;1.10;;
21046;SDS011;10682;50.874;3.656;2023-03-15T13:25:04;3.37;;;1.20;;
21046;SDS011;10682;50.874;3.656;2023-03-15T13:27:49;3.40;;;1.20;;
21046;SDS011;10682;50.874;3.656;2023-03-15T13:36:01;5.23;;;1.37;;
21046;SDS011;10682;50.874;3.656;2023-03-15T13:38:42;5.77;;;1.60;;
21046;SDS011;10682;50.874;3.656;2023-03-15T13:43:48;2.40;;;1.13;;
21046;SDS011;10682;50.874;3.656;2023-03-15T13:46:18;3.63;;;1.50;;
21046;SDS011;10682;50.874;3.656;2023-03-15T13:48:50;3.33;;;1.40;;
21046;SDS011;10682;50.874;3.656;2023-03-15T13:51:23;3.67;;;1.40;;
21046;SDS011;10682;50.874;3.656;2023-03-15T13:54:05;3.77;;;1.90;;
21046;SDS011;10682;50.874;3.656;2023-03-15T13:56:35;4.60;;;1.53;;
21046;SDS011;10682;50.874;3.656;2023-03-15T13:59:21;4.80;;;1.90;;
21046;SDS011;10682;50.874;3.656;2023-03-15T14:02:00;3.40;;;1.73;;
21046;SDS011;10682;50.874;3.656;2023-03-15T14:04:34;2.40;;;1.60;;
21046;SDS011;10682;50.874;3.656;2023-03-15T14:07:47;5.07;;;1.90;;
21046;SDS011;10682;50.874;3.656;2023-03-15T14:16:04;7.53;;;3.30;;
21046;SDS011;10682;50.874;3.656;2023-03-15T14:18:38;7.03;;;3.53;;
21046;SDS011;10682;50.874;3.656;2023-03-15T14:23:46;11.87;;;4.10;;
21046;SDS011;10682;50.874;3.656;2023-03-15T14:26:22;9.33;;;3.80;;
21046;SDS011;10682;50.874;3.656;2023-03-15T14:29:37;7.77;;;3.30;;
21046;SDS011;10682;50.874;3.656;2023-03-15T14:32:34;8.20;;;2.90;;
21046;SDS011;10682;50.874;3.656;2023-03-15T14:35:22;6.77;;;3.10;;
21046;SDS011;10682;50.874;3.656;2023-03-15T14:40:36;6.40;;;1.70;;
21046;SDS011;10682;50.874;3.656;2023-03-15T14:43:05;6.67;;;1.67;;
21046;SDS011;10682;50.874;3.656;2023-03-15T14:45:33;3.43;;;1.23;;
21046;SDS011;10682;50.874;3.656;2023-03-15T14:48:13;3.30;;;1.30;;
21046;SDS011;10682;50.874;3.656;2023-03-15T14:50:53;2.90;;;1.27;;
21046;SDS011;10682;50.874;3.656;2023-03-15T14:53:22;2.53;;;1.20;;
21046;SDS011;10682;50.874;3.656;2023-03-15T14:55:51;2.40;;;1.13;;
21046;SDS011;10682;50.874;3.656;2023-03-15T14:58:19;2.50;;;1.20;;
21046;SDS011;10682;50.874;3.656;2023-03-15T15:00:48;4.67;;;1.53;;
21046;SDS011;10682;50.874;3.656;2023-03-15T15:03:19;2.37;;;1.20;;
21046;SDS011;10682;50.874;3.656;2023-03-15T15:06:06;2.87;;;1.20;;
21046;SDS011;10682;50.874;3.656;2023-03-15T15:08:38;4.13;;;1.50;;
21046;SDS011;10682;50.874;3.656;2023-03-15T15:11:13;4.60;;;1.30;;
21046;SDS011;10682;50.874;3.656;2023-03-15T15:13:40;3.20;;;1.40;;
21046;SDS011;10682;50.874;3.656;2023-03-15T15:16:08;5.27;;;1.70;;
21046;SDS011;10682;50.874;3.656;2023-03-15T15:18:35;2.20;;;1.20;;
21046;SDS011;10682;50.874;3.656;2023-03-15T15:21:05;3.77;;;1.27;;
21046;SDS011;10682;50.874;3.656;2023-03-15T15:23:39;3.23;;;1.20;;
21046;SDS011;10682;50.874;3.656;2023-03-15T15:26:23;2.50;;;1.30;;
21046;SDS011;10682;50.874;3.656;2023-03-15T15:28:53;3.97;;;1.27;;
21046;SDS011;10682;50.874;3.656;2023-03-15T15:31:21;4.77;;;1.10;;
21046;SDS011;10682;50.874;3.656;2023-03-15T15:33:50;3.47;;;1.20;;
21046;SDS011;10682;50.874;3.656;2023-03-15T15:38:57;3.40;;;1.60;;
21046;SDS011;10682;50.874;3.656;2023-03-15T15:41:32;9.60;;;1.40;;
21046;SDS011;10682;50.874;3.656;2023-03-15T15:43:59;4.63;;;1.27;;
21046;SDS011;10682;50.874;3.656;2023-03-15T15:46:27;3.63;;;1.20;;
21046;SDS011;10682;50.874;3.656;2023-03-15T15:48:54;4.50;;;1.30;;
21046;SDS011;10682;50.874;3.656;2023-03-15T15:51:25;5.27;;;1.20;;
21046;SDS011;10682;50.874;3.656;2023-03-15T15:53:56;3.10;;;1.10;;
21046;SDS011;10682;50.874;3.656;2023-03-15T15:56:36;6.37;;;1.27;;
21046;SDS011;10682;50.874;3.656;2023-03-15T15:59:10;3.07;;;1.10;;
21046;SDS011;10682;50.874;3.656;2023-03-15T16:01:40;6.63;;;1.40;;
21046;SDS011;10682;50.874;3.656;2023-03-15T16:04:24;2.50;;;1.27;;
21046;SDS011;10682;50.874;3.656;2023-03-15T16:06:57;3.13;;;0.90;;
21046;SDS011;10682;50.874;3.656;2023-03-15T16:09:27;4.97;;;1.27;;
21046;SDS011;10682;50.874;3.656;2023-03-15T16:11:57;4.03;;;1.80;;
21046;SDS011;10682;50.874;3.656;2023-03-15T16:14:24;5.77;;;1.30;;
21046;SDS011;10682;50.874;3.656;2023-03-15T16:16:51;2.57;;;1.10;;
21046;SDS011;10682;50.874;3.656;2023-03-15T16:19:18;3.87;;;1.30;;
21046;SDS011;10682;50.874;3.656;2023-03-15T16:21:46;5.10;;;1.60;;
21046;SDS011;10682;50.874;3.656;2023-03-15T16:24:16;3.63;;;1.30;;
21046;SDS011;10682;50.874;3.656;2023-03-15T16:26:58;3.33;;;1.37;;
21046;SDS011;10682;50.874;3.656;2023-03-15T16:29:34;3.70;;;1.10;;
21046;SDS011;10682;50.874;3.656;2023-03-15T16:32:05;3.93;;;1.33;;
21046;SDS011;10682;50.874;3.656;2023-03-15T16:34:46;6.17;;;1.43;;
21046;SDS011;10682;50.874;3.656;2023-03-15T16:37:15;4.13;;;1.30;;
21046;SDS011;10682;50.874;3.656;2023-03-15T16:39:46;2.40;;;1.50;;
21046;SDS011;10682;50.874;3.656;2023-03-15T16:42:16;5.67;;;1.40;;
21046;SDS011;10682;50.874;3.656;2023-03-15T16:44:44;3.57;;;1.60;;
21046;SDS011;10682;50.874;3.656;2023-03-15T16:47:12;5.40;;;1.40;;
21046;SDS011;10682;50.874;3.656;2023-03-15T16:49:38;4.43;;;1.50;;
21046;SDS011;10682;50.874;3.656;2023-03-15T16:52:06;3.73;;;1.40;;
21046;SDS011;10682;50.874;3.656;2023-03-15T16:54:35;5.83;;;1.60;;
21046;SDS011;10682;50.874;3.656;2023-03-15T16:57:14;5.33;;;1.80;;
21046;SDS011;10682;50.874;3.656;2023-03-15T16:59:47;5.43;;;1.50;;
21046;SDS011;10682;50.874;3.656;2023-03-15T17:02:25;3.50;;;1.30;;
21046;SDS011;10682;50.874;3.656;2023-03-15T17:04:54;3.67;;;1.60;;
21046;SDS011;10682;50.874;3.656;2023-03-15T17:07:22;4.07;;;1.43;;
21046;SDS011;10682;50.874;3.656;2023-03-15T17:09:55;5.27;;;1.33;;
21046;SDS011;10682;50.874;3.656;2023-03-15T17:12:24;5.10;;;1.60;;
21046;SDS011;10682;50.874;3.656;2023-03-15T17:14:54;5.13;;;1.70;;
21046;SDS011;10682;50.874;3.656;2023-03-15T17:17:27;4.03;;;1.70;;
21046;SDS011;10682;50.874;3.656;2023-03-15T17:19:58;4.80;;;1.33;;
21046;SDS011;10682;50.874;3.656;2023-03-15T17:22:26;4.50;;;1.43;;